Time;durP1;ratioP1;P1;durP2;ratioP2;P2;SDS_P1;SDS_P2;PMS_P1;PMS_P2;Temp;Humidity;BMP_temperature;BMP_pressure;BME280_temperature;BME280_humidity;BME280_pressure;Samples;Min_cycle;Max_cycle;Signal;HPM_P1;HPM_P2
2021/09/08 00:01:18;;;;;;;10.90;5.53;;;24.20;99.90;;;;;;4991795;28;20082;-88
2021/09/08 00:03:43;;;;;;;13.18;5.65;;;24.20;99.90;;;;;;4976112;28;20398;-89
2021/09/08 00:06:09;;;;;;;8.90;6.25;;;24.10;99.90;;;;;;4975797;28;20406;-87
2021/09/08 00:08:35;;;;;;;10.55;5.95;;;24.00;99.90;;;;;;4996334;28;20030;-85
2021/09/08 00:11:00;;;;;;;11.00;5.95;;;23.90;99.90;;;;;;4995179;28;20033;-86
2021/09/08 00:13:26;;;;;;;8.82;5.50;;;23.90;99.90;;;;;;4996329;28;20062;-84
2021/09/08 00:15:52;;;;;;;10.27;6.00;;;23.90;99.90;;;;;;4994451;28;20044;-85
2021/09/08 00:18:18;;;;;;;17.52;6.28;;;23.80;99.90;;;;;;4994934;28;20030;-83
2021/09/08 00:20:44;;;;;;;12.90;6.18;;;23.80;99.90;;;;;;4995163;28;20037;-86
2021/09/08 00:23:09;;;;;;;12.23;6.35;;;23.70;99.90;;;;;;4994655;28;20509;-85
2021/09/08 00:25:35;;;;;;;12.43;6.47;;;23.70;99.90;;;;;;5003888;28;20041;-85
2021/09/08 00:28:01;;;;;;;12.95;6.20;;;23.70;99.90;;;;;;5003146;28;20043;-85
2021/09/08 00:30:26;;;;;;;20.92;6.22;;;23.70;99.90;;;;;;4994651;28;20085;-83
2021/09/08 00:32:52;;;;;;;10.75;6.10;;;23.70;99.90;;;;;;4996102;28;20025;-85
2021/09/08 00:35:18;;;;;;;11.35;5.65;;;23.70;99.90;;;;;;4995644;28;20022;-85
2021/09/08 00:37:43;;;;;;;7.68;5.93;;;23.70;99.90;;;;;;4995980;28;20026;-85
2021/09/08 00:40:10;;;;;;;11.88;6.10;;;23.60;99.90;;;;;;4994694;28;20034;-83
2021/09/08 00:42:36;;;;;;;10.48;6.03;;;23.60;99.90;;;;;;4995889;28;20067;-84
2021/09/08 00:45:03;;;;;;;11.45;5.82;;;23.60;99.90;;;;;;4994236;28;20375;-83
2021/09/08 00:47:28;;;;;;;11.50;5.93;;;23.60;99.90;;;;;;4995717;28;20030;-85
2021/09/08 00:49:54;;;;;;;8.70;5.88;;;23.50;99.90;;;;;;4994462;28;20047;-84
2021/09/08 00:52:21;;;;;;;15.27;6.05;;;23.50;99.90;;;;;;4994364;28;20030;-85
2021/09/08 00:54:49;;;;;;;9.68;5.55;;;23.40;99.90;;;;;;4994464;28;20460;-85
2021/09/08 00:57:16;;;;;;;9.70;5.88;;;23.40;99.90;;;;;;4994507;28;20054;-85
2021/09/08 00:59:43;;;;;;;9.02;5.80;;;23.40;99.90;;;;;;4993905;28;20034;-83
2021/09/08 01:02:10;;;;;;;10.77;5.60;;;23.30;99.90;;;;;;4988351;28;20062;-84
2021/09/08 01:04:37;;;;;;;9.50;5.63;;;23.30;99.90;;;;;;4991174;28;20031;-84
2021/09/08 01:07:05;;;;;;;8.85;5.55;;;23.30;99.90;;;;;;4981686;28;20054;-84
2021/09/08 01:09:31;;;;;;;11.93;5.85;;;23.40;99.90;;;;;;4993945;28;20553;-84
2021/09/08 01:11:58;;;;;;;5.95;5.28;;;23.40;99.90;;;;;;4991924;28;20027;-83
2021/09/08 01:14:24;;;;;;;13.00;5.93;;;23.50;99.90;;;;;;4995325;28;20443;-84
2021/09/08 01:16:54;;;;;;;9.82;5.72;;;23.50;99.90;;;;;;4993632;28;20061;-84
2021/09/08 01:19:21;;;;;;;10.50;5.60;;;23.50;99.90;;;;;;4993923;28;20072;-84
2021/09/08 01:21:47;;;;;;;11.32;5.57;;;23.40;99.90;;;;;;4993993;28;20393;-84
2021/09/08 01:24:14;;;;;;;12.68;6.47;;;23.40;99.90;;;;;;4995044;28;20584;-84
2021/09/08 01:26:41;;;;;;;10.98;7.80;;;23.30;99.90;;;;;;4993890;28;20080;-85
2021/09/08 01:29:08;;;;;;;21.15;10.13;;;22.90;99.90;;;;;;4991988;28;20026;-85
2021/09/08 01:31:34;;;;;;;17.58;10.18;;;22.50;99.90;;;;;;4993773;28;20038;-83
2021/09/08 01:34:00;;;;;;;16.77;9.68;;;22.20;99.90;;;;;;4993743;28;20029;-85
2021/09/08 01:36:25;;;;;;;14.40;10.02;;;22.00;99.90;;;;;;4993586;28;20069;-83
2021/09/08 01:38:51;;;;;;;16.20;9.80;;;21.90;99.90;;;;;;4994493;28;20033;-85
2021/09/08 01:41:17;;;;;;;18.88;10.85;;;21.90;99.90;;;;;;4993407;28;20061;-85
2021/09/08 01:43:46;;;;;;;16.63;10.25;;;21.80;99.90;;;;;;4994479;28;20069;-85
2021/09/08 01:46:23;;;;;;;15.60;10.50;;;21.90;99.90;;;;;;4993189;28;20061;-84
2021/09/08 01:48:49;;;;;;;16.63;10.60;;;21.90;99.90;;;;;;4993485;28;20497;-85
2021/09/08 01:51:15;;;;;;;16.42;10.80;;;21.80;99.90;;;;;;4993038;28;20493;-83
2021/09/08 01:53:41;;;;;;;13.20;10.18;;;21.90;99.90;;;;;;4994598;28;20018;-85
2021/09/08 01:56:07;;;;;;;18.88;10.73;;;21.90;99.90;;;;;;4992210;28;20078;-85
2021/09/08 01:58:34;;;;;;;14.45;10.52;;;21.90;99.90;;;;;;4994383;28;20030;-85
2021/09/08 02:00:59;;;;;;;14.93;10.73;;;21.90;99.90;;;;;;4994357;28;20034;-85
2021/09/08 02:03:25;;;;;;;21.55;11.10;;;21.90;99.90;;;;;;4994347;28;20026;-85
2021/09/08 02:05:50;;;;;;;21.73;10.27;;;21.90;99.90;;;;;;4993163;28;20379;-85
2021/09/08 02:08:16;;;;;;;19.88;11.25;;;21.90;99.90;;;;;;4992661;28;20371;-85
2021/09/08 02:10:42;;;;;;;18.67;12.65;;;21.80;99.90;;;;;;4992930;28;20492;-83
2021/09/08 02:13:07;;;;;;;23.30;12.70;;;21.70;99.90;;;;;;4993263;28;20482;-82
2021/09/08 02:15:33;;;;;;;16.83;12.25;;;21.60;99.90;;;;;;4993950;28;20028;-85
2021/09/08 02:17:59;;;;;;;17.63;13.85;;;21.40;99.90;;;;;;4993567;28;20371;-83
2021/09/08 02:20:25;;;;;;;18.52;14.40;;;21.20;99.90;;;;;;4992828;28;20081;-85
2021/09/08 02:22:50;;;;;;;20.27;15.65;;;21.10;99.90;;;;;;4992523;28;20084;-86
2021/09/08 02:25:16;;;;;;;26.50;17.50;;;21.00;99.90;;;;;;4992664;28;20033;-85
2021/09/08 02:27:42;;;;;;;28.27;18.08;;;20.80;99.90;;;;;;4992061;28;20526;-85
2021/09/08 02:30:08;;;;;;;33.53;20.65;;;20.70;99.90;;;;;;4991004;28;20026;-85
2021/09/08 02:32:34;;;;;;;45.25;21.58;;;20.60;99.90;;;;;;4992590;28;20018;-85
2021/09/08 02:35:00;;;;;;;44.38;21.52;;;20.50;99.90;;;;;;4993937;28;20027;-85
2021/09/08 02:37:26;;;;;;;48.10;22.33;;;20.50;99.90;;;;;;4991987;28;20024;-85
2021/09/08 02:39:51;;;;;;;58.47;22.85;;;20.40;99.90;;;;;;4990718;28;20442;-85
2021/09/08 02:42:17;;;;;;;60.92;27.38;;;20.30;99.90;;;;;;4992237;28;20038;-82
2021/09/08 02:44:43;;;;;;;63.88;25.60;;;20.10;99.90;;;;;;4993691;28;20089;-85
2021/09/08 02:47:10;;;;;;;54.17;25.70;;;20.00;99.90;;;;;;4995099;28;20026;-85
2021/09/08 02:49:36;;;;;;;63.28;25.23;;;20.00;99.90;;;;;;4993471;28;20426;-86
2021/09/08 02:52:02;;;;;;;48.97;24.13;;;19.90;99.90;;;;;;4993421;28;20077;-86
2021/09/08 02:54:28;;;;;;;51.20;22.40;;;19.90;99.90;;;;;;4991817;28;20401;-86
2021/09/08 02:56:53;;;;;;;49.90;22.70;;;19.90;99.90;;;;;;4991228;28;20061;-83
2021/09/08 02:59:19;;;;;;;45.85;21.50;;;19.90;99.90;;;;;;4992977;28;20026;-85
2021/09/08 03:01:44;;;;;;;41.55;20.13;;;20.00;99.90;;;;;;4988783;28;20547;-86
2021/09/08 03:04:10;;;;;;;36.85;19.65;;;20.00;99.90;;;;;;4972609;28;20113;-86
2021/09/08 03:06:36;;;;;;;33.80;18.75;;;20.00;99.90;;;;;;4977275;28;20057;-86
2021/09/08 03:09:02;;;;;;;28.52;18.08;;;20.00;99.90;;;;;;4992988;28;20505;-86
2021/09/08 03:11:27;;;;;;;31.75;18.50;;;20.00;99.90;;;;;;5003112;28;20022;-86
2021/09/08 03:13:54;;;;;;;25.88;18.00;;;20.00;99.90;;;;;;5002972;28;20037;-85
2021/09/08 03:16:20;;;;;;;34.78;18.35;;;19.90;99.90;;;;;;4992658;28;20026;-85
2021/09/08 03:18:45;;;;;;;33.95;16.67;;;20.00;99.90;;;;;;4991712;28;20093;-83
2021/09/08 03:21:11;;;;;;;28.95;17.40;;;20.00;99.90;;;;;;4991699;28;20057;-85
2021/09/08 03:23:37;;;;;;;32.50;17.30;;;20.00;99.90;;;;;;4992923;28;20081;-86
2021/09/08 03:26:03;;;;;;;36.65;18.10;;;20.00;99.90;;;;;;4990085;28;20030;-86
2021/09/08 03:28:28;;;;;;;35.50;18.70;;;20.00;99.90;;;;;;4990304;28;20497;-86
2021/09/08 03:30:54;;;;;;;32.22;18.48;;;20.00;99.90;;;;;;4991438;28;20029;-86
2021/09/08 03:33:20;;;;;;;36.83;19.75;;;20.00;99.90;;;;;;4992847;28;20398;-82
2021/09/08 03:35:46;;;;;;;35.28;19.35;;;20.00;99.90;;;;;;4991541;28;20413;-82
2021/09/08 03:38:11;;;;;;;36.22;19.20;;;20.00;99.90;;;;;;4991125;28;20030;-85
2021/09/08 03:40:37;;;;;;;42.75;20.15;;;20.00;99.90;;;;;;4991775;28;20030;-86
2021/09/08 03:43:03;;;;;;;35.47;19.60;;;20.00;99.90;;;;;;4991457;28;20046;-83
2021/09/08 03:45:29;;;;;;;30.48;15.55;;;20.00;99.90;;;;;;4992790;28;20065;-85
2021/09/08 03:47:55;;;;;;;38.83;20.60;;;20.00;99.90;;;;;;4992766;28;20038;-86
2021/09/08 03:50:21;;;;;;;52.92;21.40;;;20.00;99.90;;;;;;4992328;28;20055;-86
2021/09/08 03:52:46;;;;;;;40.10;20.40;;;20.10;99.90;;;;;;4992717;28;20129;-86
2021/09/08 03:55:12;;;;;;;36.08;19.00;;;20.10;99.90;;;;;;4991783;28;20985;-86
2021/09/08 03:57:38;;;;;;;34.90;19.42;;;20.10;99.90;;;;;;4992440;28;20379;-83
2021/09/08 04:00:08;;;;;;;253.25;122.25;;;20.20;99.90;;;;;;4991175;28;20022;-86
2021/09/08 04:02:34;;;;;;;36.30;19.80;;;20.20;99.90;;;;;;4991602;28;20121;-86
2021/09/08 04:04:59;;;;;;;41.20;20.55;;;20.20;99.90;;;;;;4992860;28;20453;-86
2021/09/08 04:07:27;;;;;;;38.22;20.38;;;20.20;99.90;;;;;;4990947;28;20046;-86
2021/09/08 04:09:53;;;;;;;34.22;15.88;;;20.20;99.90;;;;;;4992549;28;20069;-83
2021/09/08 04:12:18;;;;;;;31.02;17.98;;;20.20;99.90;;;;;;4989681;28;20050;-86
2021/09/08 04:14:44;;;;;;;30.30;13.85;;;20.20;99.90;;;;;;4992475;28;20498;-86
2021/09/08 04:17:10;;;;;;;30.40;15.85;;;20.30;99.90;;;;;;4992031;28;20027;-86
2021/09/08 04:19:35;;;;;;;23.98;15.63;;;20.30;99.90;;;;;;4991610;28;20030;-86
2021/09/08 04:22:01;;;;;;;29.60;16.02;;;20.30;99.90;;;;;;4991442;28;20489;-86
2021/09/08 04:24:27;;;;;;;31.58;15.70;;;20.30;99.90;;;;;;4992145;28;20042;-86
2021/09/08 04:26:52;;;;;;;31.70;16.25;;;20.40;99.90;;;;;;4991415;28;20034;-83
2021/09/08 04:29:18;;;;;;;26.92;16.95;;;20.40;99.90;;;;;;4989311;28;20077;-86
2021/09/08 04:31:44;;;;;;;30.73;14.90;;;20.40;99.90;;;;;;4992616;28;20494;-86
2021/09/08 04:34:10;;;;;;;22.77;11.50;;;20.40;99.90;;;;;;4991120;28;20041;-86
2021/09/08 04:36:36;;;;;;;14.00;7.88;;;20.40;99.90;;;;;;4991597;28;20058;-83
2021/09/08 04:39:02;;;;;;;14.52;7.47;;;20.50;99.90;;;;;;4994021;28;20073;-86
2021/09/08 04:41:28;;;;;;;15.50;8.82;;;20.40;99.90;;;;;;4994675;28;20034;-84
2021/09/08 04:43:53;;;;;;;10.93;5.53;;;20.50;99.90;;;;;;4994447;28;20062;-86
2021/09/08 04:46:19;;;;;;;7.88;4.72;;;20.40;99.90;;;;;;4994447;28;20049;-86
2021/09/08 04:48:44;;;;;;;13.38;5.78;;;20.30;99.90;;;;;;4994586;28;20053;-86
2021/09/08 04:51:10;;;;;;;6.30;2.88;;;20.40;99.90;;;;;;4993823;28;20081;-83
2021/09/08 04:53:36;;;;;;;9.20;4.57;;;20.30;99.90;;;;;;4994357;28;20019;-86
2021/09/08 04:56:01;;;;;;;9.25;2.35;;;20.30;99.90;;;;;;4993468;28;20030;-86
2021/09/08 04:58:27;;;;;;;10.95;4.72;;;20.30;99.90;;;;;;4995521;28;20030;-86
2021/09/08 05:00:53;;;;;;;3.53;2.55;;;20.30;99.90;;;;;;4989214;28;20041;-83
2021/09/08 05:03:18;;;;;;;7.63;3.65;;;20.30;99.90;;;;;;4993779;28;20026;-86
2021/09/08 05:05:44;;;;;;;4.40;2.67;;;20.20;99.90;;;;;;4995506;28;20053;-83
2021/09/08 05:08:10;;;;;;;7.80;3.80;;;20.20;99.90;;;;;;4995222;28;20106;-86
2021/09/08 05:10:36;;;;;;;10.93;4.07;;;20.20;99.90;;;;;;4994116;28;20113;-86
2021/09/08 05:13:01;;;;;;;7.68;3.47;;;20.20;99.90;;;;;;4994047;28;20504;-83
2021/09/08 05:15:27;;;;;;;6.18;3.60;;;20.10;99.90;;;;;;4993678;28;20441;-83
2021/09/08 05:17:53;;;;;;;3.83;2.78;;;20.10;99.90;;;;;;4994839;28;20105;-86
2021/09/08 05:20:19;;;;;;;4.63;2.95;;;20.10;99.90;;;;;;4993759;28;20038;-86
2021/09/08 05:22:45;;;;;;;6.22;3.08;;;20.10;99.90;;;;;;4993533;28;20062;-86
2021/09/08 05:25:11;;;;;;;4.18;2.47;;;20.00;99.90;;;;;;4993231;28;20464;-82
2021/09/08 05:27:36;;;;;;;3.50;3.13;;;20.00;99.90;;;;;;4994204;28;20026;-86
2021/09/08 05:30:03;;;;;;;9.23;4.95;;;20.00;99.90;;;;;;4991863;28;20065;-86
2021/09/08 05:32:29;;;;;;;2.80;1.83;;;20.00;99.90;;;;;;4993689;28;20031;-86
2021/09/08 05:34:56;;;;;;;4.25;2.60;;;20.00;99.90;;;;;;4995294;28;20076;-86
2021/09/08 05:37:23;;;;;;;5.70;3.88;;;20.00;99.90;;;;;;4993255;28;20138;-83
2021/09/08 05:39:48;;;;;;;3.53;2.72;;;20.00;99.90;;;;;;4993531;28;20034;-86
2021/09/08 05:42:14;;;;;;;3.30;2.70;;;20.00;99.90;;;;;;4993924;28;20073;-87
2021/09/08 05:44:40;;;;;;;7.97;3.58;;;20.00;99.90;;;;;;4990327;28;20140;-85
2021/09/08 05:47:05;;;;;;;6.32;2.63;;;20.00;99.90;;;;;;4992787;28;20042;-84
2021/09/08 05:49:31;;;;;;;5.13;3.17;;;20.10;99.90;;;;;;4992853;28;20049;-85
2021/09/08 05:51:57;;;;;;;3.15;2.65;;;20.10;99.90;;;;;;4975304;28;20054;-86
2021/09/08 05:54:22;;;;;;;4.28;2.13;;;20.00;99.90;;;;;;4973519;28;20053;-86
2021/09/08 05:56:48;;;;;;;4.63;3.17;;;20.00;99.90;;;;;;4991197;28;20031;-86
2021/09/08 05:59:13;;;;;;;7.43;3.47;;;20.10;99.90;;;;;;4993084;28;20090;-86
2021/09/08 06:01:39;;;;;;;2.75;2.50;;;20.10;99.90;;;;;;4993868;28;20018;-86
2021/09/08 06:04:05;;;;;;;9.65;5.05;;;20.20;99.90;;;;;;4992346;28;20481;-86
2021/09/08 06:06:30;;;;;;;5.50;3.58;;;20.20;99.90;;;;;;4992535;28;20049;-82
2021/09/08 06:08:56;;;;;;;4.18;2.92;;;20.20;99.90;;;;;;5009665;28;20081;-86
2021/09/08 06:11:22;;;;;;;2.17;1.80;;;20.20;99.90;;;;;;5001174;28;20042;-85
2021/09/08 06:13:47;;;;;;;3.55;3.22;;;20.30;99.90;;;;;;4994095;28;20113;-88
2021/09/08 06:16:13;;;;;;;4.93;3.63;;;20.30;99.90;;;;;;4990659;28;20026;-84
2021/09/08 06:18:39;;;;;;;4.13;2.45;;;20.40;99.90;;;;;;4995756;28;20068;-88
2021/09/08 06:21:04;;;;;;;2.60;2.20;;;20.40;99.90;;;;;;4992119;28;20022;-85
2021/09/08 06:23:30;;;;;;;2.50;2.30;;;20.40;99.90;;;;;;4991657;28;20038;-84
2021/09/08 06:25:56;;;;;;;5.32;2.65;;;20.50;99.90;;;;;;4993774;28;20042;-85
2021/09/08 06:28:23;;;;;;;3.55;3.20;;;20.50;99.90;;;;;;4992233;28;20069;-88
2021/09/08 06:30:49;;;;;;;5.22;3.13;;;20.60;99.90;;;;;;4992792;28;20049;-85
2021/09/08 06:33:15;;;;;;;3.67;2.92;;;20.70;99.90;;;;;;4985783;28;20030;-85
2021/09/08 06:35:44;;;;;;;8.50;3.22;;;20.70;99.90;;;;;;4991329;28;20026;-85
2021/09/08 06:38:09;;;;;;;3.97;2.88;;;20.80;99.90;;;;;;4977766;28;20046;-85
2021/09/08 06:40:35;;;;;;;3.08;2.60;;;20.90;99.90;;;;;;4982864;28;20103;-86
2021/09/08 06:43:01;;;;;;;3.38;2.10;;;21.00;99.90;;;;;;5007580;28;20130;-88
2021/09/08 06:45:27;;;;;;;2.63;2.42;;;21.10;99.90;;;;;;4999584;28;20046;-85
2021/09/08 06:47:52;;;;;;;3.80;2.38;;;21.20;99.90;;;;;;5002100;28;20036;-83
2021/09/08 06:50:18;;;;;;;6.53;2.88;;;21.30;99.90;;;;;;4988382;28;20493;-85
2021/09/08 06:52:43;;;;;;;2.78;1.95;;;21.40;99.90;;;;;;4989544;28;20050;-85
2021/09/08 06:55:09;;;;;;;4.57;3.08;;;21.60;99.90;;;;;;4991317;28;20026;-86
2021/09/08 06:57:35;;;;;;;1.90;1.80;;;21.80;99.90;;;;;;4990953;28;20037;-86
2021/09/08 07:00:01;;;;;;;6.03;3.15;;;22.00;99.90;;;;;;4990099;28;20045;-86
2021/09/08 07:02:26;;;;;;;6.15;3.08;;;22.10;99.90;;;;;;4991031;28;20033;-81
2021/09/08 07:04:52;;;;;;;4.03;2.65;;;22.10;99.90;;;;;;4987812;28;20092;-83
2021/09/08 07:07:20;;;;;;;4.93;2.50;;;22.10;99.90;;;;;;4991008;28;20038;-85
2021/09/08 07:09:46;;;;;;;4.60;2.53;;;22.00;99.90;;;;;;4991076;28;20022;-85
2021/09/08 07:12:12;;;;;;;2.33;1.88;;;22.00;99.90;;;;;;4989100;28;21007;-80
2021/09/08 07:14:38;;;;;;;3.35;2.78;;;22.00;99.90;;;;;;4992425;28;20027;-87
2021/09/08 07:17:03;;;;;;;4.18;2.28;;;22.00;99.90;;;;;;4992758;28;20127;-87
2021/09/08 07:19:29;;;;;;;3.25;2.85;;;22.20;99.90;;;;;;4991705;28;20449;-78
2021/09/08 07:21:55;;;;;;;3.63;2.50;;;22.20;99.90;;;;;;4992341;28;20053;-79
2021/09/08 07:24:21;;;;;;;3.95;2.80;;;22.30;99.90;;;;;;4997375;28;20461;-85
2021/09/08 07:26:47;;;;;;;3.80;2.45;;;22.40;99.90;;;;;;4991362;28;20027;-85
2021/09/08 07:29:13;;;;;;;3.67;2.60;;;22.60;99.90;;;;;;4987472;28;20030;-86
2021/09/08 07:31:39;;;;;;;5.10;2.65;;;22.60;99.90;;;;;;4990494;28;20022;-88
2021/09/08 07:34:04;;;;;;;2.00;1.80;;;22.50;99.90;;;;;;4985449;28;20111;-88
2021/09/08 07:36:30;;;;;;;4.15;2.58;;;22.40;99.90;;;;;;4990565;28;20077;-86
2021/09/08 07:38:56;;;;;;;7.65;4.25;;;22.30;99.90;;;;;;4984029;28;20030;-89
2021/09/08 07:41:23;;;;;;;5.43;2.92;;;22.20;99.90;;;;;;4980668;28;20062;-87
2021/09/08 07:43:49;;;;;;;4.20;2.75;;;22.10;99.90;;;;;;4985272;28;20509;-89
2021/09/08 07:46:16;;;;;;;3.78;2.08;;;22.00;99.90;;;;;;4986932;28;20031;-87
2021/09/08 07:48:42;;;;;;;3.45;2.47;;;22.00;99.90;;;;;;4987532;28;20046;-82
2021/09/08 07:51:08;;;;;;;2.78;2.40;;;22.00;99.90;;;;;;5000976;28;20084;-81
2021/09/08 07:53:35;;;;;;;4.00;2.08;;;22.00;99.90;;;;;;4981263;28;20038;-82
2021/09/08 07:56:01;;;;;;;6.97;2.00;;;22.10;99.90;;;;;;4980487;28;20058;-89
2021/09/08 07:58:27;;;;;;;3.25;2.60;;;22.20;99.90;;;;;;4978553;28;20066;-86
2021/09/08 08:00:52;;;;;;;3.35;2.38;;;22.40;99.90;;;;;;4995951;28;20056;-87
2021/09/08 08:03:21;;;;;;;3.22;2.22;;;22.40;99.90;;;;;;4984285;28;20061;-81
2021/09/08 08:05:47;;;;;;;2.55;2.05;;;22.60;99.90;;;;;;4991089;28;20044;-87
2021/09/08 08:08:13;;;;;;;6.18;3.15;;;22.50;99.90;;;;;;4983252;28;20494;-87
2021/09/08 08:10:39;;;;;;;3.45;2.85;;;22.60;99.90;;;;;;4982642;28;20537;-86
2021/09/08 08:13:05;;;;;;;2.38;2.17;;;22.70;99.90;;;;;;4986867;28;20019;-88
2021/09/08 08:15:31;;;;;;;5.80;2.75;;;22.80;99.90;;;;;;4991564;28;20118;-89
2021/09/08 08:17:56;;;;;;;2.97;2.70;;;23.10;99.90;;;;;;4995174;28;20053;-84
2021/09/08 08:20:22;;;;;;;11.07;2.13;;;23.20;99.90;;;;;;4994820;28;20038;-86
2021/09/08 08:22:48;;;;;;;5.25;2.47;;;23.30;99.90;;;;;;4990882;28;20026;-86
2021/09/08 08:25:18;;;;;;;1.98;1.77;;;23.40;99.90;;;;;;4981427;28;20027;-89
2021/09/08 08:27:44;;;;;;;4.70;3.08;;;23.50;99.90;;;;;;4994541;28;20524;-89
2021/09/08 08:30:11;;;;;;;5.50;2.75;;;23.20;99.90;;;;;;4992228;28;20025;-86
2021/09/08 08:32:37;;;;;;;6.63;2.78;;;23.10;99.90;;;;;;4993501;28;20108;-87
2021/09/08 08:35:03;;;;;;;2.88;1.70;;;22.90;99.90;;;;;;4987296;28;20066;-82
2021/09/08 08:37:29;;;;;;;11.38;3.30;;;22.80;99.90;;;;;;4990398;28;20030;-84
2021/09/08 08:39:56;;;;;;;3.38;3.08;;;22.70;99.90;;;;;;4989833;28;20389;-85
2021/09/08 08:42:26;;;;;;;5.60;2.35;;;22.70;99.90;;;;;;4983759;28;20035;-83
2021/09/08 08:44:52;;;;;;;5.70;2.33;;;22.70;99.90;;;;;;4985189;28;20038;-87
2021/09/08 08:47:20;;;;;;;8.55;2.05;;;23.10;99.90;;;;;;4976984;28;20027;-84
2021/09/08 08:49:46;;;;;;;2.13;1.73;;;23.10;99.90;;;;;;4979718;28;20397;-85
2021/09/08 08:52:13;;;;;;;4.68;2.28;;;23.10;99.90;;;;;;4993984;28;20034;-83
2021/09/08 08:54:39;;;;;;;5.38;2.15;;;23.00;99.90;;;;;;5009859;28;20137;-85
2021/09/08 08:57:12;;;;;;;13.93;3.25;;;22.90;99.90;;;;;;4997513;28;20144;-83
2021/09/08 08:59:39;;;;;;;2.20;2.00;;;22.80;99.90;;;;;;4987693;28;20026;-88
2021/09/08 09:02:29;;;;;;;6.20;1.90;;;22.70;99.90;;;;;;4984523;28;20029;-81
2021/09/08 09:05:01;;;;;;;15.32;3.00;;;22.60;99.90;;;;;;4974694;28;20037;-79
2021/09/08 09:07:30;;;;;;;2.30;1.85;;;22.50;99.90;;;;;;4979102;28;20030;-81
2021/09/08 09:09:58;;;;;;;4.15;2.35;;;22.30;99.90;;;;;;4993144;28;20560;-87
2021/09/08 09:12:26;;;;;;;3.45;2.65;;;22.10;99.90;;;;;;4987315;28;20121;-84
2021/09/08 09:14:57;;;;;;;1.95;1.48;;;22.00;99.90;;;;;;4987593;28;20050;-79
2021/09/08 09:17:24;;;;;;;3.38;1.63;;;22.00;99.90;;;;;;4992883;28;20080;-80
2021/09/08 09:19:50;;;;;;;2.60;2.00;;;22.10;99.90;;;;;;4994095;28;20052;-78
2021/09/08 09:22:19;;;;;;;2.05;1.33;;;22.20;99.90;;;;;;4989773;28;20035;-81
2021/09/08 09:24:53;;;;;;;6.57;2.50;;;22.20;99.90;;;;;;5004882;28;20030;-86
2021/09/08 09:27:19;;;;;;;4.47;2.33;;;22.00;99.90;;;;;;5008753;28;20041;-85
2021/09/08 09:29:45;;;;;;;3.25;2.20;;;21.90;99.90;;;;;;4992706;28;20022;-83
2021/09/08 09:32:12;;;;;;;1.63;1.42;;;22.10;99.90;;;;;;4988109;28;20061;-81
2021/09/08 09:34:41;;;;;;;4.70;2.63;;;22.40;99.90;;;;;;4992957;28;20417;-80
2021/09/08 09:37:08;;;;;;;2.30;2.10;;;22.80;99.90;;;;;;4991899;28;20137;-87
2021/09/08 09:39:36;;;;;;;3.63;2.75;;;23.00;99.90;;;;;;4992596;28;20045;-83
2021/09/08 09:42:09;;;;;;;2.38;2.17;;;23.30;99.90;;;;;;4990359;28;20073;-83
2021/09/08 09:44:35;;;;;;;5.60;2.65;;;25.30;99.90;;;;;;4983593;28;20489;-81
2021/09/08 09:47:01;;;;;;;2.65;2.03;;;27.10;99.90;;;;;;4993139;28;20034;-83
2021/09/08 09:49:29;;;;;;;2.00;1.77;;;26.30;99.90;;;;;;4986097;28;20386;-81
2021/09/08 09:51:56;;;;;;;5.47;3.10;;;25.70;99.90;;;;;;4983560;28;20038;-86
2021/09/08 09:54:23;;;;;;;3.55;1.80;;;26.50;99.90;;;;;;4992440;28;20030;-82
2021/09/08 09:56:49;;;;;;;2.38;1.77;;;27.20;99.90;;;;;;4985360;28;20021;-80
2021/09/08 09:59:16;;;;;;;2.97;1.85;;;27.20;99.90;;;;;;5004408;28;20516;-80
2021/09/08 10:01:42;;;;;;;2.97;2.20;;;27.10;99.90;;;;;;4992719;28;20065;-78
2021/09/08 10:04:09;;;;;;;5.75;1.88;;;26.60;99.90;;;;;;4991955;28;20038;-81
2021/09/08 10:06:36;;;;;;;3.08;2.35;;;26.60;99.90;;;;;;4991929;28;20042;-80
2021/09/08 10:09:02;;;;;;;3.03;2.60;;;26.80;99.90;;;;;;4995980;28;20018;-81
2021/09/08 10:11:33;;;;;;;2.88;2.17;;;26.60;99.90;;;;;;5010186;28;20011;-79
2021/09/08 10:14:16;;;;;;;3.70;1.90;;;26.00;99.90;;;;;;5009841;28;20021;-81
2021/09/08 10:16:47;;;;;;;2.70;2.25;;;25.80;99.90;;;;;;5016508;28;20054;-80
2021/09/08 10:19:21;;;;;;;2.92;2.20;;;25.80;99.90;;;;;;4993148;28;20458;-80
2021/09/08 10:21:51;;;;;;;3.50;2.05;;;25.50;99.90;;;;;;4991702;28;20022;-81
2021/09/08 10:24:17;;;;;;;2.35;1.60;;;25.30;99.90;;;;;;4995986;28;20362;-80
2021/09/08 10:26:45;;;;;;;3.05;1.70;;;25.30;99.90;;;;;;4999449;28;20113;-81
2021/09/08 10:29:11;;;;;;;2.58;2.30;;;25.80;99.90;;;;;;5000175;28;20114;-81
2021/09/08 10:31:41;;;;;;;3.35;2.10;;;26.30;99.90;;;;;;4996224;28;20050;-82
2021/09/08 10:34:08;;;;;;;3.67;2.33;;;26.20;99.90;;;;;;4995318;28;20033;-82
2021/09/08 10:36:35;;;;;;;3.42;2.58;;;26.30;99.90;;;;;;4987695;28;20046;-83
2021/09/08 10:39:10;;;;;;;1.42;1.33;;;26.40;99.90;;;;;;4987866;28;20049;-82
2021/09/08 10:41:45;;;;;;;3.85;2.80;;;26.60;99.90;;;;;;4999538;28;20037;-83
2021/09/08 10:44:12;;;;;;;3.25;2.40;;;26.60;99.90;;;;;;4995184;28;20042;-82
2021/09/08 10:46:50;;;;;;;2.20;1.85;;;27.10;99.90;;;;;;4986559;28;20038;-80
2021/09/08 10:49:42;;;;;;;4.18;2.60;;;26.60;99.90;;;;;;4995678;28;20401;-81
2021/09/08 10:52:12;;;;;;;4.20;1.52;;;26.00;99.90;;;;;;4993131;28;20557;-80
2021/09/08 10:54:56;;;;;;;2.13;1.95;;;25.70;99.90;;;;;;4993199;28;20035;-81
2021/09/08 10:57:41;;;;;;;2.75;1.38;;;25.20;99.90;;;;;;4988321;28;20038;-80
2021/09/08 11:00:08;;;;;;;2.95;1.70;;;25.20;99.90;;;;;;5001851;28;20073;-81
2021/09/08 11:02:42;;;;;;;3.20;2.50;;;25.00;99.90;;;;;;4991305;28;20125;-79
2021/09/08 11:05:09;;;;;;;3.47;2.17;;;25.10;99.90;;;;;;4992532;28;20034;-80
2021/09/08 11:07:38;;;;;;;3.67;2.38;;;25.70;99.90;;;;;;4992775;28;20053;-81
2021/09/08 11:10:04;;;;;;;2.33;2.10;;;25.80;99.90;;;;;;4987473;28;20037;-81
2021/09/08 11:12:50;;;;;;;2.38;1.25;;;26.00;99.90;;;;;;4993388;28;20097;-80
2021/09/08 11:15:20;;;;;;;2.35;1.50;;;26.00;99.90;;;;;;4991788;28;20027;-80
2021/09/08 11:17:53;;;;;;;1.30;0.90;;;26.30;99.90;;;;;;4985394;28;20401;-80
2021/09/08 11:20:19;;;;;;;2.35;1.83;;;26.20;99.60;;;;;;4990681;28;20466;-81
2021/09/08 11:23:17;;;;;;;1.35;0.93;;;26.20;99.20;;;;;;4991534;28;20101;-82
2021/09/08 11:25:45;;;;;;;1.88;1.50;;;26.40;98.80;;;;;;4964817;28;20821;-81
2021/09/08 11:28:12;;;;;;;5.47;1.48;;;26.50;99.90;;;;;;4985133;28;20073;-79
2021/09/08 11:30:43;;;;;;;2.70;1.88;;;26.40;99.90;;;;;;4996666;28;20029;-81
2021/09/08 11:33:13;;;;;;;1.60;1.15;;;27.00;99.90;;;;;;4982463;28;20026;-81
2021/09/08 11:35:59;;;;;;;1.33;1.02;;;26.90;99.80;;;;;;4986038;28;20519;-80
2021/09/08 11:38:30;;;;;;;1.10;0.80;;;27.00;98.30;;;;;;4984894;28;20082;-81
2021/09/08 11:40:56;;;;;;;1.95;0.70;;;27.60;96.30;;;;;;5013766;28;20034;-80
2021/09/08 11:43:33;;;;;;;1.20;0.70;;;28.40;96.20;;;;;;4980607;28;20058;-81
2021/09/08 11:46:18;;;;;;;1.15;1.05;;;27.80;96.90;;;;;;4981308;28;20114;-80
2021/09/08 11:48:46;;;;;;;1.60;0.98;;;27.90;97.60;;;;;;4986045;28;20046;-80
2021/09/08 11:51:14;;;;;;;1.00;0.90;;;28.10;96.90;;;;;;4988922;28;20025;-81
2021/09/08 11:53:41;;;;;;;0.68;0.68;;;28.40;96.70;;;;;;4989373;28;20553;-80
2021/09/08 11:56:08;;;;;;;0.40;0.40;;;27.70;97.50;;;;;;4986112;28;20019;-80
2021/09/08 11:58:34;;;;;;;0.65;0.57;;;27.80;97.30;;;;;;4986635;28;20050;-80
2021/09/08 12:01:04;;;;;;;3.08;1.20;;;27.70;96.40;;;;;;4995967;28;20101;-80
2021/09/08 12:03:31;;;;;;;1.17;0.77;;;27.80;96.20;;;;;;4986495;28;20026;-80
2021/09/08 12:06:14;;;;;;;0.75;0.75;;;28.10;96.30;;;;;;4994059;28;20053;-80
2021/09/08 12:08:58;;;;;;;1.20;0.60;;;27.80;96.00;;;;;;4989354;28;20045;-78
2021/09/08 12:11:40;;;;;;;3.60;0.98;;;28.10;95.60;;;;;;4985544;28;20031;-79
2021/09/08 12:14:25;;;;;;;2.27;0.70;;;27.90;95.60;;;;;;4988241;28;20022;-81
2021/09/08 12:16:57;;;;;;;1.20;1.10;;;27.50;96.10;;;;;;4994414;28;20034;-78
2021/09/08 12:19:30;;;;;;;;;;;27.90;95.90;;;;;;4993765;28;20417;-79
2021/09/08 12:22:12;;;;;;;2.00;0.80;;;28.20;95.60;;;;;;4990900;28;20000;-81
2021/09/08 12:24:49;;;;;;;0.43;0.40;;;27.70;95.70;;;;;;4996025;28;20057;-81
2021/09/08 12:27:25;;;;;;;0.38;0.38;;;27.70;95.60;;;;;;4992938;28;20026;-84
2021/09/08 12:29:53;;;;;;;0.80;0.50;;;27.70;95.50;;;;;;4997597;28;20042;-81
2021/09/08 12:32:19;;;;;;;2.08;0.75;;;27.40;96.10;;;;;;4993190;28;20027;-80
2021/09/08 12:34:48;;;;;;;1.00;0.73;;;27.60;95.90;;;;;;4993464;28;20465;-81
2021/09/08 12:37:14;;;;;;;0.40;0.40;;;27.80;95.70;;;;;;4993753;28;20026;-82
2021/09/08 12:39:45;;;;;;;0.55;0.55;;;28.10;95.30;;;;;;4992839;28;20130;-81
2021/09/08 12:42:23;;;;;;;1.10;0.68;;;28.30;94.90;;;;;;4994972;28;20133;-82